sensor_id;sensor_type;location;lat;lon;timestamp;temperature;humidity
41953;DHT22;63613;28.200;112.870;2024-03-25T00:00:21;21.40;74.00
41953;DHT22;63613;28.200;112.870;2024-03-25T00:02:52;21.40;74.00
41953;DHT22;63613;28.200;112.870;2024-03-25T00:05:22;21.40;74.00
41953;DHT22;63613;28.200;112.870;2024-03-25T00:07:53;21.40;74.00
41953;DHT22;63613;28.200;112.870;2024-03-25T00:10:22;21.40;74.00
41953;DHT22;63613;28.200;112.870;2024-03-25T00:12:51;21.40;74.00
41953;DHT22;63613;28.200;112.870;2024-03-25T00:15:23;21.40;74.00
41953;DHT22;63613;28.200;112.870;2024-03-25T00:17:52;21.40;74.00
41953;DHT22;63613;28.200;112.870;2024-03-25T00:20:21;21.40;74.00
41953;DHT22;63613;28.200;112.870;2024-03-25T00:22:49;21.40;74.10
41953;DHT22;63613;28.200;112.870;2024-03-25T00:25:18;21.30;74.00
41953;DHT22;63613;28.200;112.870;2024-03-25T00:27:47;21.40;74.10
41953;DHT22;63613;28.200;112.870;2024-03-25T00:30:16;21.40;74.10
41953;DHT22;63613;28.200;112.870;2024-03-25T00:32:44;21.30;74.00
41953;DHT22;63613;28.200;112.870;2024-03-25T00:35:13;21.40;74.10
41953;DHT22;63613;28.200;112.870;2024-03-25T00:37:42;21.40;74.10
41953;DHT22;63613;28.200;112.870;2024-03-25T00:40:13;21.30;74.10
41953;DHT22;63613;28.200;112.870;2024-03-25T00:42:41;21.30;74.10
41953;DHT22;63613;28.200;112.870;2024-03-25T00:45:10;21.40;74.10
41953;DHT22;63613;28.200;112.870;2024-03-25T00:47:39;21.30;74.10
41953;DHT22;63613;28.200;112.870;2024-03-25T00:50:08;21.40;74.10
41953;DHT22;63613;28.200;112.870;2024-03-25T00:52:38;21.40;74.10
41953;DHT22;63613;28.200;112.870;2024-03-25T00:55:06;21.30;74.10
41953;DHT22;63613;28.200;112.870;2024-03-25T00:57:35;21.40;74.10
41953;DHT22;63613;28.200;112.870;2024-03-25T01:00:04;21.40;74.10
41953;DHT22;63613;28.200;112.870;2024-03-25T01:02:33;21.40;74.10
41953;DHT22;63613;28.200;112.870;2024-03-25T01:05:03;21.40;74.10
41953;DHT22;63613;28.200;112.870;2024-03-25T01:07:32;21.40;74.10
41953;DHT22;63613;28.200;112.870;2024-03-25T01:10:01;21.30;74.10
41953;DHT22;63613;28.200;112.870;2024-03-25T01:12:29;21.40;74.10
41953;DHT22;63613;28.200;112.870;2024-03-25T01:14:58;21.30;74.10
41953;DHT22;63613;28.200;112.870;2024-03-25T01:17:27;21.30;74.10
41953;DHT22;63613;28.200;112.870;2024-03-25T01:19:57;21.30;74.20
41953;DHT22;63613;28.200;112.870;2024-03-25T01:22:26;21.30;74.10
41953;DHT22;63613;28.200;112.870;2024-03-25T01:24:54;21.30;74.10
41953;DHT22;63613;28.200;112.870;2024-03-25T01:27:23;21.30;74.10
41953;DHT22;63613;28.200;112.870;2024-03-25T01:29:52;21.40;74.20
41953;DHT22;63613;28.200;112.870;2024-03-25T01:32:21;21.30;74.20
41953;DHT22;63613;28.200;112.870;2024-03-25T01:34:50;21.30;74.20
41953;DHT22;63613;28.200;112.870;2024-03-25T01:37:19;21.30;74.20
41953;DHT22;63613;28.200;112.870;2024-03-25T01:39:47;21.30;74.20
41953;DHT22;63613;28.200;112.870;2024-03-25T01:42:17;21.30;74.20
41953;DHT22;63613;28.200;112.870;2024-03-25T01:44:45;21.30;74.20
41953;DHT22;63613;28.200;112.870;2024-03-25T01:47:15;21.30;74.20
41953;DHT22;63613;28.200;112.870;2024-03-25T01:49:44;21.30;74.20
41953;DHT22;63613;28.200;112.870;2024-03-25T01:52:13;21.40;74.20
41953;DHT22;63613;28.200;112.870;2024-03-25T01:54:42;21.30;74.20
41953;DHT22;63613;28.200;112.870;2024-03-25T01:57:11;21.30;74.20
41953;DHT22;63613;28.200;112.870;2024-03-25T01:59:40;21.30;74.10
41953;DHT22;63613;28.200;112.870;2024-03-25T02:02:10;21.30;74.20
41953;DHT22;63613;28.200;112.870;2024-03-25T02:04:41;21.30;74.30
41953;DHT22;63613;28.200;112.870;2024-03-25T02:07:13;21.30;74.30
41953;DHT22;63613;28.200;112.870;2024-03-25T02:09:43;21.30;74.30
41953;DHT22;63613;28.200;112.870;2024-03-25T02:12:12;21.30;74.30
41953;DHT22;63613;28.200;112.870;2024-03-25T02:14:40;21.30;74.40
41953;DHT22;63613;28.200;112.870;2024-03-25T02:17:10;21.30;74.50
41953;DHT22;63613;28.200;112.870;2024-03-25T02:19:41;21.30;74.50
41953;DHT22;63613;28.200;112.870;2024-03-25T02:22:10;21.40;74.50
41953;DHT22;63613;28.200;112.870;2024-03-25T02:24:39;21.30;74.50
41953;DHT22;63613;28.200;112.870;2024-03-25T02:27:08;21.40;74.50
41953;DHT22;63613;28.200;112.870;2024-03-25T02:29:37;21.40;74.60
41953;DHT22;63613;28.200;112.870;2024-03-25T02:32:08;21.40;74.70
41953;DHT22;63613;28.200;112.870;2024-03-25T02:34:43;21.40;74.80
41953;DHT22;63613;28.200;112.870;2024-03-25T02:37:13;21.40;74.80
41953;DHT22;63613;28.200;112.870;2024-03-25T02:39:42;21.40;74.80
41953;DHT22;63613;28.200;112.870;2024-03-25T02:42:11;21.40;74.80
41953;DHT22;63613;28.200;112.870;2024-03-25T02:44:40;21.40;74.70
41953;DHT22;63613;28.200;112.870;2024-03-25T02:47:11;21.40;74.80
41953;DHT22;63613;28.200;112.870;2024-03-25T02:49:39;21.40;74.80
41953;DHT22;63613;28.200;112.870;2024-03-25T02:52:11;21.40;74.80
41953;DHT22;63613;28.200;112.870;2024-03-25T02:54:40;21.30;74.80
41953;DHT22;63613;28.200;112.870;2024-03-25T02:57:08;21.30;74.80
41953;DHT22;63613;28.200;112.870;2024-03-25T02:59:37;21.30;74.80
41953;DHT22;63613;28.200;112.870;2024-03-25T03:02:05;21.30;74.80
41953;DHT22;63613;28.200;112.870;2024-03-25T03:04:36;21.30;74.80
41953;DHT22;63613;28.200;112.870;2024-03-25T03:07:05;21.30;74.80
41953;DHT22;63613;28.200;112.870;2024-03-25T03:09:33;21.30;74.80
41953;DHT22;63613;28.200;112.870;2024-03-25T03:12:02;21.30;74.80
41953;DHT22;63613;28.200;112.870;2024-03-25T03:14:31;21.30;74.80
41953;DHT22;63613;28.200;112.870;2024-03-25T03:17:00;21.30;74.80
41953;DHT22;63613;28.200;112.870;2024-03-25T03:19:32;21.30;74.80
41953;DHT22;63613;28.200;112.870;2024-03-25T03:22:02;21.30;74.90
41953;DHT22;63613;28.200;112.870;2024-03-25T03:24:30;21.30;74.90
41953;DHT22;63613;28.200;112.870;2024-03-25T03:27:00;21.30;74.90
41953;DHT22;63613;28.200;112.870;2024-03-25T03:29:29;21.30;74.90
41953;DHT22;63613;28.200;112.870;2024-03-25T03:31:57;21.30;74.90
41953;DHT22;63613;28.200;112.870;2024-03-25T03:34:27;21.30;74.90
41953;DHT22;63613;28.200;112.870;2024-03-25T03:36:56;21.30;74.90
41953;DHT22;63613;28.200;112.870;2024-03-25T03:39:25;21.30;74.90
41953;DHT22;63613;28.200;112.870;2024-03-25T03:41:54;21.30;75.00
41953;DHT22;63613;28.200;112.870;2024-03-25T03:44:23;21.30;74.90
41953;DHT22;63613;28.200;112.870;2024-03-25T03:46:51;21.20;74.90
41953;DHT22;63613;28.200;112.870;2024-03-25T03:49:20;21.20;74.90
41953;DHT22;63613;28.200;112.870;2024-03-25T03:51:49;21.20;75.00
41953;DHT22;63613;28.200;112.870;2024-03-25T03:54:17;21.20;75.00
41953;DHT22;63613;28.200;112.870;2024-03-25T03:56:46;21.20;74.90
41953;DHT22;63613;28.200;112.870;2024-03-25T03:59:14;21.20;75.00
41953;DHT22;63613;28.200;112.870;2024-03-25T04:01:43;21.20;74.90
41953;DHT22;63613;28.200;112.870;2024-03-25T04:04:12;21.20;75.00
41953;DHT22;63613;28.200;112.870;2024-03-25T04:06:41;21.20;74.90
41953;DHT22;63613;28.200;112.870;2024-03-25T04:09:09;21.20;74.90
41953;DHT22;63613;28.200;112.870;2024-03-25T04:11:38;21.20;74.90
41953;DHT22;63613;28.200;112.870;2024-03-25T04:14:06;21.20;74.90
41953;DHT22;63613;28.200;112.870;2024-03-25T04:16:36;21.20;74.90
41953;DHT22;63613;28.200;112.870;2024-03-25T04:19:09;21.20;74.90
41953;DHT22;63613;28.200;112.870;2024-03-25T04:21:38;21.20;74.90
41953;DHT22;63613;28.200;112.870;2024-03-25T04:24:07;21.20;74.90
41953;DHT22;63613;28.200;112.870;2024-03-25T04:26:37;21.20;74.90
41953;DHT22;63613;28.200;112.870;2024-03-25T04:29:06;21.20;74.90
41953;DHT22;63613;28.200;112.870;2024-03-25T04:31:34;21.20;74.90
41953;DHT22;63613;28.200;112.870;2024-03-25T04:34:05;21.20;74.90
41953;DHT22;63613;28.200;112.870;2024-03-25T04:36:33;21.10;74.90
41953;DHT22;63613;28.200;112.870;2024-03-25T04:39:03;21.20;74.90
41953;DHT22;63613;28.200;112.870;2024-03-25T04:41:35;21.20;74.90
41953;DHT22;63613;28.200;112.870;2024-03-25T04:44:04;21.20;74.90
41953;DHT22;63613;28.200;112.870;2024-03-25T04:46:33;21.10;74.90
41953;DHT22;63613;28.200;112.870;2024-03-25T04:49:02;21.10;74.90
41953;DHT22;63613;28.200;112.870;2024-03-25T04:51:31;21.10;74.90
41953;DHT22;63613;28.200;112.870;2024-03-25T04:53:59;21.20;74.90
41953;DHT22;63613;28.200;112.870;2024-03-25T04:56:28;21.10;74.90
41953;DHT22;63613;28.200;112.870;2024-03-25T04:58:58;21.10;74.90
41953;DHT22;63613;28.200;112.870;2024-03-25T05:01:30;21.10;74.90
41953;DHT22;63613;28.200;112.870;2024-03-25T05:03:58;21.10;74.90
41953;DHT22;63613;28.200;112.870;2024-03-25T05:06:27;21.10;74.90
41953;DHT22;63613;28.200;112.870;2024-03-25T05:08:56;21.10;74.90
41953;DHT22;63613;28.200;112.870;2024-03-25T05:11:24;21.00;74.90
41953;DHT22;63613;28.200;112.870;2024-03-25T05:13:54;21.10;74.90
41953;DHT22;63613;28.200;112.870;2024-03-25T05:16:22;21.10;74.90
41953;DHT22;63613;28.200;112.870;2024-03-25T05:18:51;21.00;74.90
41953;DHT22;63613;28.200;112.870;2024-03-25T05:21:20;21.10;74.90
41953;DHT22;63613;28.200;112.870;2024-03-25T05:23:49;21.10;74.90
41953;DHT22;63613;28.200;112.870;2024-03-25T05:26:19;21.00;74.80
41953;DHT22;63613;28.200;112.870;2024-03-25T05:28:52;21.00;74.90
41953;DHT22;63613;28.200;112.870;2024-03-25T05:31:20;21.00;74.90
41953;DHT22;63613;28.200;112.870;2024-03-25T05:33:50;21.00;74.90
41953;DHT22;63613;28.200;112.870;2024-03-25T05:36:19;21.00;74.90
41953;DHT22;63613;28.200;112.870;2024-03-25T05:38:49;21.10;74.90
41953;DHT22;63613;28.200;112.870;2024-03-25T05:41:17;21.00;74.80
41953;DHT22;63613;28.200;112.870;2024-03-25T05:43:46;21.00;74.80
41953;DHT22;63613;28.200;112.870;2024-03-25T05:46:15;21.00;74.80
41953;DHT22;63613;28.200;112.870;2024-03-25T05:48:45;21.00;74.80
41953;DHT22;63613;28.200;112.870;2024-03-25T05:51:13;21.10;74.80
41953;DHT22;63613;28.200;112.870;2024-03-25T05:53:44;21.10;74.80
41953;DHT22;63613;28.200;112.870;2024-03-25T05:56:12;21.00;74.80
41953;DHT22;63613;28.200;112.870;2024-03-25T05:58:42;21.00;74.80
41953;DHT22;63613;28.200;112.870;2024-03-25T06:01:12;21.00;74.80
41953;DHT22;63613;28.200;112.870;2024-03-25T06:03:40;21.10;74.80
41953;DHT22;63613;28.200;112.870;2024-03-25T06:06:09;21.00;74.80
41953;DHT22;63613;28.200;112.870;2024-03-25T06:08:38;21.10;74.80
41953;DHT22;63613;28.200;112.870;2024-03-25T06:11:06;21.00;74.80
41953;DHT22;63613;28.200;112.870;2024-03-25T06:13:35;21.10;74.80
41953;DHT22;63613;28.200;112.870;2024-03-25T06:16:04;21.00;74.80
41953;DHT22;63613;28.200;112.870;2024-03-25T06:18:33;21.00;74.80
41953;DHT22;63613;28.200;112.870;2024-03-25T06:21:02;21.10;74.80
41953;DHT22;63613;28.200;112.870;2024-03-25T06:23:30;21.00;74.70
41953;DHT22;63613;28.200;112.870;2024-03-25T06:26:00;21.00;74.80
41953;DHT22;63613;28.200;112.870;2024-03-25T06:28:28;21.00;74.80
41953;DHT22;63613;28.200;112.870;2024-03-25T06:30:57;21.00;74.70
41953;DHT22;63613;28.200;112.870;2024-03-25T06:33:44;21.00;74.70
41953;DHT22;63613;28.200;112.870;2024-03-25T06:36:33;21.00;74.70
41953;DHT22;63613;28.200;112.870;2024-03-25T06:39:02;21.00;74.70
41953;DHT22;63613;28.200;112.870;2024-03-25T06:41:31;21.00;74.70
41953;DHT22;63613;28.200;112.870;2024-03-25T06:44:00;20.90;74.70
41953;DHT22;63613;28.200;112.870;2024-03-25T06:46:28;21.00;74.70
41953;DHT22;63613;28.200;112.870;2024-03-25T06:48:58;21.00;74.70
41953;DHT22;63613;28.200;112.870;2024-03-25T06:51:26;21.00;74.70
41953;DHT22;63613;28.200;112.870;2024-03-25T06:53:55;21.00;74.70
41953;DHT22;63613;28.200;112.870;2024-03-25T06:56:24;20.90;74.70
41953;DHT22;63613;28.200;112.870;2024-03-25T06:58:52;20.90;74.70
41953;DHT22;63613;28.200;112.870;2024-03-25T07:01:22;20.90;74.70
41953;DHT22;63613;28.200;112.870;2024-03-25T07:03:50;21.00;74.70
41953;DHT22;63613;28.200;112.870;2024-03-25T07:06:21;21.00;74.70
41953;DHT22;63613;28.200;112.870;2024-03-25T07:08:50;20.90;74.70
41953;DHT22;63613;28.200;112.870;2024-03-25T07:11:19;21.00;74.70
41953;DHT22;63613;28.200;112.870;2024-03-25T07:13:48;21.00;74.70
41953;DHT22;63613;28.200;112.870;2024-03-25T07:16:17;20.90;74.70
41953;DHT22;63613;28.200;112.870;2024-03-25T07:18:45;20.90;74.70
41953;DHT22;63613;28.200;112.870;2024-03-25T07:21:14;20.90;74.70
41953;DHT22;63613;28.200;112.870;2024-03-25T07:23:43;21.00;74.70
41953;DHT22;63613;28.200;112.870;2024-03-25T07:26:12;21.00;74.60
41953;DHT22;63613;28.200;112.870;2024-03-25T07:28:40;21.00;74.60
41953;DHT22;63613;28.200;112.870;2024-03-25T07:31:09;20.90;74.60
41953;DHT22;63613;28.200;112.870;2024-03-25T07:33:38;20.90;74.50
41953;DHT22;63613;28.200;112.870;2024-03-25T07:36:06;20.90;74.60
41953;DHT22;63613;28.200;112.870;2024-03-25T07:38:36;20.90;74.60
41953;DHT22;63613;28.200;112.870;2024-03-25T07:41:06;20.90;74.50
41953;DHT22;63613;28.200;112.870;2024-03-25T07:43:34;20.90;74.50
41953;DHT22;63613;28.200;112.870;2024-03-25T07:46:03;20.90;74.60
41953;DHT22;63613;28.200;112.870;2024-03-25T07:48:32;20.90;74.60
41953;DHT22;63613;28.200;112.870;2024-03-25T07:51:03;20.90;74.60
41953;DHT22;63613;28.200;112.870;2024-03-25T07:53:32;20.90;74.50
41953;DHT22;63613;28.200;112.870;2024-03-25T07:56:02;20.90;74.50
41953;DHT22;63613;28.200;112.870;2024-03-25T07:58:32;20.90;74.50
41953;DHT22;63613;28.200;112.870;2024-03-25T08:01:00;20.90;74.50
41953;DHT22;63613;28.200;112.870;2024-03-25T08:03:30;20.90;74.50
41953;DHT22;63613;28.200;112.870;2024-03-25T08:05:59;20.90;74.50
41953;DHT22;63613;28.200;112.870;2024-03-25T08:08:27;20.90;74.50
41953;DHT22;63613;28.200;112.870;2024-03-25T08:10:56;20.90;74.50
41953;DHT22;63613;28.200;112.870;2024-03-25T08:13:25;20.90;74.50
41953;DHT22;63613;28.200;112.870;2024-03-25T08:15:55;20.80;74.50
41953;DHT22;63613;28.200;112.870;2024-03-25T08:18:23;20.90;74.50
41953;DHT22;63613;28.200;112.870;2024-03-25T08:20:52;20.90;74.50
41953;DHT22;63613;28.200;112.870;2024-03-25T08:23:21;20.80;74.50
41953;DHT22;63613;28.200;112.870;2024-03-25T08:25:49;20.90;74.40
41953;DHT22;63613;28.200;112.870;2024-03-25T08:28:19;20.90;74.40
41953;DHT22;63613;28.200;112.870;2024-03-25T08:30:47;20.80;74.40
41953;DHT22;63613;28.200;112.870;2024-03-25T08:33:16;20.80;74.40
41953;DHT22;63613;28.200;112.870;2024-03-25T08:35:44;20.80;74.40
41953;DHT22;63613;28.200;112.870;2024-03-25T08:38:14;20.80;74.40
41953;DHT22;63613;28.200;112.870;2024-03-25T08:40:50;20.80;74.40
41953;DHT22;63613;28.200;112.870;2024-03-25T08:43:19;20.90;74.40
41953;DHT22;63613;28.200;112.870;2024-03-25T08:45:48;20.80;74.40
41953;DHT22;63613;28.200;112.870;2024-03-25T08:48:19;20.90;74.40
41953;DHT22;63613;28.200;112.870;2024-03-25T08:50:51;20.80;74.40
41953;DHT22;63613;28.200;112.870;2024-03-25T08:53:20;20.90;74.40
41953;DHT22;63613;28.200;112.870;2024-03-25T08:55:51;20.90;74.40
41953;DHT22;63613;28.200;112.870;2024-03-25T08:58:20;20.90;74.30
41953;DHT22;63613;28.200;112.870;2024-03-25T09:00:49;20.90;74.30
41953;DHT22;63613;28.200;112.870;2024-03-25T09:03:18;20.90;74.30
41953;DHT22;63613;28.200;112.870;2024-03-25T09:05:48;20.80;74.30
41953;DHT22;63613;28.200;112.870;2024-03-25T09:08:16;20.80;74.30
41953;DHT22;63613;28.200;112.870;2024-03-25T09:10:45;20.90;74.30
41953;DHT22;63613;28.200;112.870;2024-03-25T09:13:30;20.90;74.20
41953;DHT22;63613;28.200;112.870;2024-03-25T09:15:59;20.90;73.90
41953;DHT22;63613;28.200;112.870;2024-03-25T09:18:27;20.50;67.50
41953;DHT22;63613;28.200;112.870;2024-03-25T09:20:56;19.90;66.90
41953;DHT22;63613;28.200;112.870;2024-03-25T09:23:24;19.60;66.00
41953;DHT22;63613;28.200;112.870;2024-03-25T09:25:55;19.40;65.20
41953;DHT22;63613;28.200;112.870;2024-03-25T09:28:24;19.10;65.60
41953;DHT22;63613;28.200;112.870;2024-03-25T09:30:52;19.00;64.90
41953;DHT22;63613;28.200;112.870;2024-03-25T09:33:21;18.80;64.30
41953;DHT22;63613;28.200;112.870;2024-03-25T09:35:50;18.70;62.80
41953;DHT22;63613;28.200;112.870;2024-03-25T09:38:19;18.70;65.50
41953;DHT22;63613;28.200;112.870;2024-03-25T09:40:47;18.80;65.40
41953;DHT22;63613;28.200;112.870;2024-03-25T09:43:27;18.80;63.30
41953;DHT22;63613;28.200;112.870;2024-03-25T09:45:59;18.80;65.30
41953;DHT22;63613;28.200;112.870;2024-03-25T09:48:31;18.80;65.10
41953;DHT22;63613;28.200;112.870;2024-03-25T09:51:04;18.80;64.70
41953;DHT22;63613;28.200;112.870;2024-03-25T09:53:32;18.80;63.70
41953;DHT22;63613;28.200;112.870;2024-03-25T09:56:02;18.80;65.00
41953;DHT22;63613;28.200;112.870;2024-03-25T09:58:31;18.80;64.80
41953;DHT22;63613;28.200;112.870;2024-03-25T10:01:00;18.80;64.20
41953;DHT22;63613;28.200;112.870;2024-03-25T10:03:29;18.80;64.40
41953;DHT22;63613;28.200;112.870;2024-03-25T10:05:58;18.80;64.00
41953;DHT22;63613;28.200;112.870;2024-03-25T10:08:26;18.80;63.40
41953;DHT22;63613;28.200;112.870;2024-03-25T10:10:58;18.80;64.00
41953;DHT22;63613;28.200;112.870;2024-03-25T10:13:27;18.80;63.20
41953;DHT22;63613;28.200;112.870;2024-03-25T10:15:56;18.70;63.50
41953;DHT22;63613;28.200;112.870;2024-03-25T10:18:25;18.80;64.20
41953;DHT22;63613;28.200;112.870;2024-03-25T10:20:55;18.90;63.70
41953;DHT22;63613;28.200;112.870;2024-03-25T10:23:25;19.00;63.50
41953;DHT22;63613;28.200;112.870;2024-03-25T10:25:54;19.00;63.70
41953;DHT22;63613;28.200;112.870;2024-03-25T10:28:23;19.00;63.60
41953;DHT22;63613;28.200;112.870;2024-03-25T10:30:52;19.10;63.90
41953;DHT22;63613;28.200;112.870;2024-03-25T10:33:20;19.10;64.20
41953;DHT22;63613;28.200;112.870;2024-03-25T10:35:51;19.20;63.90
41953;DHT22;63613;28.200;112.870;2024-03-25T10:38:20;19.20;63.60
41953;DHT22;63613;28.200;112.870;2024-03-25T10:40:50;19.20;63.70
41953;DHT22;63613;28.200;112.870;2024-03-25T10:43:21;19.30;63.50
41953;DHT22;63613;28.200;112.870;2024-03-25T10:45:52;19.30;63.10
41953;DHT22;63613;28.200;112.870;2024-03-25T10:48:29;19.30;62.60
41953;DHT22;63613;28.200;112.870;2024-03-25T10:51:01;19.30;62.60
41953;DHT22;63613;28.200;112.870;2024-03-25T10:53:30;19.30;62.50
41953;DHT22;63613;28.200;112.870;2024-03-25T10:56:00;19.30;62.20
41953;DHT22;63613;28.200;112.870;2024-03-25T10:58:29;19.30;62.10
41953;DHT22;63613;28.200;112.870;2024-03-25T11:00:59;19.30;61.90
41953;DHT22;63613;28.200;112.870;2024-03-25T11:03:29;19.30;61.90
41953;DHT22;63613;28.200;112.870;2024-03-25T11:05:58;19.20;62.10
41953;DHT22;63613;28.200;112.870;2024-03-25T11:08:32;19.20;61.90
41953;DHT22;63613;28.200;112.870;2024-03-25T11:11:01;19.20;61.70
41953;DHT22;63613;28.200;112.870;2024-03-25T11:13:29;19.10;62.10
41953;DHT22;63613;28.200;112.870;2024-03-25T11:15:59;19.20;61.90
41953;DHT22;63613;28.200;112.870;2024-03-25T11:18:29;19.20;61.70
41953;DHT22;63613;28.200;112.870;2024-03-25T11:21:03;19.20;61.90
41953;DHT22;63613;28.200;112.870;2024-03-25T11:23:42;19.20;61.50
41953;DHT22;63613;28.200;112.870;2024-03-25T11:26:22;19.20;62.30
41953;DHT22;63613;28.200;112.870;2024-03-25T11:28:53;19.30;62.10
41953;DHT22;63613;28.200;112.870;2024-03-25T11:31:22;19.20;62.50
41953;DHT22;63613;28.200;112.870;2024-03-25T11:33:53;19.30;62.70
41953;DHT22;63613;28.200;112.870;2024-03-25T11:36:24;19.30;62.60
41953;DHT22;63613;28.200;112.870;2024-03-25T11:39:03;19.30;62.70
41953;DHT22;63613;28.200;112.870;2024-03-25T11:41:33;19.40;62.50
41953;DHT22;63613;28.200;112.870;2024-03-25T11:44:03;19.40;62.70
41953;DHT22;63613;28.200;112.870;2024-03-25T11:46:32;19.40;62.40
41953;DHT22;63613;28.200;112.870;2024-03-25T11:49:01;19.40;62.30
41953;DHT22;63613;28.200;112.870;2024-03-25T11:51:30;19.50;62.50
41953;DHT22;63613;28.200;112.870;2024-03-25T11:53:59;19.40;62.60
41953;DHT22;63613;28.200;112.870;2024-03-25T11:56:28;19.50;62.70
41953;DHT22;63613;28.200;112.870;2024-03-25T11:58:58;19.50;62.40
41953;DHT22;63613;28.200;112.870;2024-03-25T12:01:28;19.50;62.20
41953;DHT22;63613;28.200;112.870;2024-03-25T12:04:08;19.50;62.30
41953;DHT22;63613;28.200;112.870;2024-03-25T12:06:37;19.50;62.20
41953;DHT22;63613;28.200;112.870;2024-03-25T12:09:06;19.50;62.40
41953;DHT22;63613;28.200;112.870;2024-03-25T12:11:54;19.50;62.10
41953;DHT22;63613;28.200;112.870;2024-03-25T12:14:24;19.50;62.20
41953;DHT22;63613;28.200;112.870;2024-03-25T12:16:57;19.50;62.40
41953;DHT22;63613;28.200;112.870;2024-03-25T12:19:26;19.60;62.30
41953;DHT22;63613;28.200;112.870;2024-03-25T12:22:02;19.50;62.30
41953;DHT22;63613;28.200;112.870;2024-03-25T12:24:31;19.50;62.10
41953;DHT22;63613;28.200;112.870;2024-03-25T12:27:00;19.50;62.00
41953;DHT22;63613;28.200;112.870;2024-03-25T12:29:30;19.50;62.00
41953;DHT22;63613;28.200;112.870;2024-03-25T12:31:59;19.50;62.00
41953;DHT22;63613;28.200;112.870;2024-03-25T12:34:29;19.50;61.90
41953;DHT22;63613;28.200;112.870;2024-03-25T12:37:03;19.50;62.00
41953;DHT22;63613;28.200;112.870;2024-03-25T12:39:32;19.50;62.00
41953;DHT22;63613;28.200;112.870;2024-03-25T12:42:05;19.50;61.90
41953;DHT22;63613;28.200;112.870;2024-03-25T12:44:34;19.50;61.70
41953;DHT22;63613;28.200;112.870;2024-03-25T12:47:03;19.50;61.90
41953;DHT22;63613;28.200;112.870;2024-03-25T12:49:32;19.50;61.40
41953;DHT22;63613;28.200;112.870;2024-03-25T12:52:02;19.50;61.80
41953;DHT22;63613;28.200;112.870;2024-03-25T12:54:34;19.50;61.90
41953;DHT22;63613;28.200;112.870;2024-03-25T12:57:03;19.50;62.00
41953;DHT22;63613;28.200;112.870;2024-03-25T12:59:31;19.60;61.60
41953;DHT22;63613;28.200;112.870;2024-03-25T13:02:00;19.60;61.70
41953;DHT22;63613;28.200;112.870;2024-03-25T13:04:30;19.50;61.60
41953;DHT22;63613;28.200;112.870;2024-03-25T13:06:59;19.50;61.70
41953;DHT22;63613;28.200;112.870;2024-03-25T13:09:28;19.50;61.50
41953;DHT22;63613;28.200;112.870;2024-03-25T13:11:58;19.50;61.50
41953;DHT22;63613;28.200;112.870;2024-03-25T13:14:27;19.50;61.50
41953;DHT22;63613;28.200;112.870;2024-03-25T13:16:57;19.50;61.30
41953;DHT22;63613;28.200;112.870;2024-03-25T13:19:26;19.50;61.40
41953;DHT22;63613;28.200;112.870;2024-03-25T13:21:57;19.50;61.50
41953;DHT22;63613;28.200;112.870;2024-03-25T13:24:25;19.50;61.30
41953;DHT22;63613;28.200;112.870;2024-03-25T13:26:54;19.40;61.40
41953;DHT22;63613;28.200;112.870;2024-03-25T13:29:23;19.50;61.30
41953;DHT22;63613;28.200;112.870;2024-03-25T13:31:52;19.50;61.30
41953;DHT22;63613;28.200;112.870;2024-03-25T13:34:21;19.60;61.30
41953;DHT22;63613;28.200;112.870;2024-03-25T13:36:49;19.50;61.20
41953;DHT22;63613;28.200;112.870;2024-03-25T13:39:18;19.50;61.00
41953;DHT22;63613;28.200;112.870;2024-03-25T13:41:47;19.50;61.00
41953;DHT22;63613;28.200;112.870;2024-03-25T13:44:16;19.50;61.00
41953;DHT22;63613;28.200;112.870;2024-03-25T13:46:45;19.50;61.10
41953;DHT22;63613;28.200;112.870;2024-03-25T13:49:15;19.50;60.90
41953;DHT22;63613;28.200;112.870;2024-03-25T13:51:45;19.50;60.90
41953;DHT22;63613;28.200;112.870;2024-03-25T13:54:14;19.50;61.00
41953;DHT22;63613;28.200;112.870;2024-03-25T13:56:45;19.50;60.80
41953;DHT22;63613;28.200;112.870;2024-03-25T13:59:14;19.50;60.90
41953;DHT22;63613;28.200;112.870;2024-03-25T14:01:43;19.50;61.00
41953;DHT22;63613;28.200;112.870;2024-03-25T14:04:12;19.50;60.90
41953;DHT22;63613;28.200;112.870;2024-03-25T14:06:41;19.50;60.80
41953;DHT22;63613;28.200;112.870;2024-03-25T14:09:22;19.50;60.90
41953;DHT22;63613;28.200;112.870;2024-03-25T14:11:51;19.50;61.00
41953;DHT22;63613;28.200;112.870;2024-03-25T14:14:20;19.60;61.10
41953;DHT22;63613;28.200;112.870;2024-03-25T14:16:49;19.50;61.00
41953;DHT22;63613;28.200;112.870;2024-03-25T14:19:19;19.60;61.10
41953;DHT22;63613;28.200;112.870;2024-03-25T14:21:49;19.50;60.90
41953;DHT22;63613;28.200;112.870;2024-03-25T14:24:18;19.50;60.90
41953;DHT22;63613;28.200;112.870;2024-03-25T14:26:47;19.60;60.90
41953;DHT22;63613;28.200;112.870;2024-03-25T14:29:16;19.60;61.10
41953;DHT22;63613;28.200;112.870;2024-03-25T14:31:46;19.60;61.20
41953;DHT22;63613;28.200;112.870;2024-03-25T14:34:15;19.60;61.00
41953;DHT22;63613;28.200;112.870;2024-03-25T14:36:43;19.60;61.00
41953;DHT22;63613;28.200;112.870;2024-03-25T14:39:12;19.60;61.30
41953;DHT22;63613;28.200;112.870;2024-03-25T14:41:43;19.70;61.00
41953;DHT22;63613;28.200;112.870;2024-03-25T14:44:12;19.70;60.50
41953;DHT22;63613;28.200;112.870;2024-03-25T14:46:41;19.60;60.60
41953;DHT22;63613;28.200;112.870;2024-03-25T14:49:10;19.60;60.90
41953;DHT22;63613;28.200;112.870;2024-03-25T14:51:39;19.70;61.10
41953;DHT22;63613;28.200;112.870;2024-03-25T14:54:08;19.70;61.10
41953;DHT22;63613;28.200;112.870;2024-03-25T14:56:38;19.70;61.20
41953;DHT22;63613;28.200;112.870;2024-03-25T14:59:07;19.80;61.20
41953;DHT22;63613;28.200;112.870;2024-03-25T15:01:35;19.80;61.20
41953;DHT22;63613;28.200;112.870;2024-03-25T15:04:05;19.80;61.30
41953;DHT22;63613;28.200;112.870;2024-03-25T15:06:35;19.80;61.40
41953;DHT22;63613;28.200;112.870;2024-03-25T15:09:04;19.80;61.40
41953;DHT22;63613;28.200;112.870;2024-03-25T15:11:33;19.90;61.50
41953;DHT22;63613;28.200;112.870;2024-03-25T15:14:02;19.80;61.50
41953;DHT22;63613;28.200;112.870;2024-03-25T15:16:32;19.80;61.50